createdAt,value
2017-09-16T00:02:21.391Z,10.00
2017-09-16T00:04:49.783Z,9.90
2017-09-16T00:07:19.194Z,9.80
2017-09-16T00:09:46.833Z,9.80
2017-09-16T00:12:14.433Z,9.80
2017-09-16T00:14:42.053Z,9.80
2017-09-16T00:17:10.500Z,9.80
2017-09-16T00:19:38.110Z,9.80
2017-09-16T00:22:05.722Z,9.80
2017-09-16T00:24:33.378Z,9.80
2017-09-16T00:27:01.056Z,9.80
2017-09-16T00:29:28.666Z,9.80
2017-09-16T00:31:57.044Z,9.80
2017-09-16T00:34:24.689Z,9.70
2017-09-16T00:36:52.349Z,9.80
2017-09-16T00:39:22.300Z,9.80
2017-09-16T00:41:49.909Z,9.80
2017-09-16T00:44:17.972Z,9.70
2017-09-16T00:46:45.617Z,9.80
2017-09-16T00:49:13.216Z,9.70
2017-09-16T00:51:40.869Z,9.70
2017-09-16T00:54:08.509Z,9.70
2017-09-16T00:56:36.189Z,9.60
2017-09-16T00:59:04.596Z,9.60
2017-09-16T01:01:32.250Z,9.60
2017-09-16T01:04:00.649Z,9.60
2017-09-16T01:06:28.273Z,9.50
2017-09-16T01:08:55.969Z,9.60
2017-09-16T01:11:23.599Z,9.50
2017-09-16T01:13:51.999Z,9.50
2017-09-16T01:16:19.639Z,9.50
2017-09-16T01:18:47.280Z,9.50
2017-09-16T01:21:14.920Z,9.50
2017-09-16T01:23:42.598Z,9.50
2017-09-16T01:26:10.220Z,9.50
2017-09-16T01:28:37.840Z,9.40
2017-09-16T01:31:05.454Z,9.40
2017-09-16T01:33:33.058Z,9.30
2017-09-16T01:36:00.701Z,9.30
2017-09-16T01:38:28.352Z,9.40
2017-09-16T01:40:56.854Z,9.40
2017-09-16T01:43:24.458Z,9.40
2017-09-16T01:45:52.093Z,9.50
2017-09-16T01:48:19.699Z,9.40
2017-09-16T01:50:47.308Z,9.40
2017-09-16T01:53:14.964Z,9.30
2017-09-16T01:55:42.553Z,9.30
2017-09-16T01:58:11.148Z,9.30
2017-09-16T02:00:38.895Z,9.30
2017-09-16T02:03:06.509Z,9.40
2017-09-16T02:05:34.104Z,9.40
2017-09-16T02:08:02.491Z,9.30
2017-09-16T02:10:30.134Z,9.30
2017-09-16T02:12:57.764Z,9.30
2017-09-16T02:15:25.468Z,9.30
2017-09-16T02:17:53.759Z,9.30
2017-09-16T02:20:21.393Z,9.30
2017-09-16T02:22:49.065Z,9.30
2017-09-16T02:25:17.545Z,9.30
2017-09-16T02:27:45.916Z,9.30
2017-09-16T02:30:13.550Z,9.30
2017-09-16T02:32:41.141Z,9.30
2017-09-16T02:35:08.742Z,9.30
2017-09-16T02:37:36.467Z,9.40
2017-09-16T02:40:04.143Z,9.40
2017-09-16T02:42:32.518Z,9.30
2017-09-16T02:45:00.178Z,9.30
2017-09-16T02:47:27.802Z,9.30
2017-09-16T02:49:55.428Z,9.40
2017-09-16T02:52:23.064Z,9.30
2017-09-16T02:54:50.733Z,9.40
2017-09-16T02:57:18.363Z,9.40
2017-09-16T02:59:46.054Z,9.40
2017-09-16T03:02:13.712Z,9.40
2017-09-16T03:04:41.332Z,9.40
2017-09-16T03:07:08.993Z,9.40
2017-09-16T03:09:36.585Z,9.40
2017-09-16T03:12:04.216Z,9.40
2017-09-16T03:14:31.844Z,9.50
2017-09-16T03:16:59.536Z,9.50
2017-09-16T03:19:27.232Z,9.50
2017-09-16T03:21:55.652Z,9.60
2017-09-16T03:24:23.351Z,9.60
2017-09-16T03:26:51.024Z,9.60
2017-09-16T03:29:19.515Z,9.60
2017-09-16T03:31:47.882Z,9.70
2017-09-16T03:34:15.490Z,9.60
2017-09-16T03:36:43.095Z,9.70
2017-09-16T03:39:10.766Z,9.70
2017-09-16T03:41:38.373Z,9.80
2017-09-16T03:44:06.073Z,9.80
2017-09-16T03:46:33.737Z,9.80
2017-09-16T03:49:01.500Z,9.90
2017-09-16T03:51:29.135Z,9.90
2017-09-16T03:53:56.796Z,10.00
2017-09-16T03:56:24.396Z,10.00
2017-09-16T03:58:52.043Z,10.00
2017-09-16T04:01:32.302Z,10.00
2017-09-16T04:03:59.962Z,10.00
2017-09-16T04:06:27.666Z,10.00
2017-09-16T04:08:55.349Z,10.10
2017-09-16T04:11:22.984Z,10.10
2017-09-16T04:13:51.437Z,10.20
2017-09-16T04:16:20.145Z,10.20
2017-09-16T04:18:48.599Z,10.20
2017-09-16T04:21:16.195Z,10.20
2017-09-16T04:23:44.558Z,10.20
2017-09-16T04:26:12.181Z,10.20
2017-09-16T04:28:39.844Z,10.30
2017-09-16T04:31:08.328Z,10.30
2017-09-16T04:33:36.305Z,10.30
2017-09-16T04:36:03.959Z,10.30
2017-09-16T04:38:31.590Z,10.30
2017-09-16T04:40:59.288Z,10.40
2017-09-16T04:43:26.921Z,10.40
2017-09-16T04:45:54.550Z,10.40
2017-09-16T04:48:22.986Z,10.40
2017-09-16T04:50:50.655Z,10.40
2017-09-16T04:53:18.303Z,10.40
2017-09-16T04:55:46.014Z,10.40
2017-09-16T04:58:13.652Z,10.40
2017-09-16T05:00:41.272Z,10.30
2017-09-16T05:03:08.912Z,10.30
2017-09-16T05:05:36.912Z,10.40
2017-09-16T05:08:04.537Z,10.30
2017-09-16T05:10:32.183Z,10.20
2017-09-16T05:12:59.778Z,10.30
2017-09-16T05:15:27.422Z,10.30
2017-09-16T05:17:55.078Z,10.30
2017-09-16T05:20:23.459Z,10.40
2017-09-16T05:22:51.121Z,10.40
2017-09-16T05:25:18.757Z,10.40
2017-09-16T05:27:46.466Z,10.40
2017-09-16T05:30:14.109Z,10.40
2017-09-16T05:32:41.717Z,10.40
2017-09-16T05:35:09.447Z,10.40
2017-09-16T05:37:37.098Z,10.50
2017-09-16T05:40:04.801Z,10.50
2017-09-16T05:42:32.494Z,10.50
2017-09-16T05:45:00.854Z,10.60
2017-09-16T05:47:28.581Z,10.50
2017-09-16T05:49:56.189Z,10.60
2017-09-16T05:52:24.586Z,10.60
2017-09-16T05:54:52.220Z,10.60
2017-09-16T05:57:19.822Z,10.60
2017-09-16T05:59:47.493Z,10.60
2017-09-16T06:02:15.091Z,10.60
2017-09-16T06:04:42.685Z,10.70
2017-09-16T06:07:10.327Z,10.70
2017-09-16T06:09:37.923Z,10.70
2017-09-16T06:12:05.674Z,10.70
2017-09-16T06:14:33.305Z,10.70
2017-09-16T06:17:00.939Z,10.80
2017-09-16T06:19:28.555Z,10.80
2017-09-16T06:21:56.182Z,10.90
2017-09-16T06:24:23.872Z,10.90
2017-09-16T06:26:51.543Z,11.00
2017-09-16T06:29:19.147Z,11.00
2017-09-16T06:31:46.788Z,11.10
2017-09-16T06:34:15.389Z,11.00
2017-09-16T06:36:43.058Z,11.10
2017-09-16T06:39:10.821Z,11.10
2017-09-16T06:41:39.172Z,11.10
2017-09-16T06:44:06.780Z,11.10
2017-09-16T06:46:34.451Z,11.20
2017-09-16T06:49:02.114Z,11.20
2017-09-16T06:51:29.734Z,11.30
2017-09-16T06:53:57.855Z,11.30
2017-09-16T06:56:25.884Z,11.30
2017-09-16T06:58:53.558Z,11.40
2017-09-16T07:01:21.140Z,11.40
2017-09-16T07:03:48.802Z,11.40
2017-09-16T07:06:16.437Z,11.40
2017-09-16T07:08:44.846Z,11.40
2017-09-16T07:11:12.501Z,11.40
2017-09-16T07:13:40.106Z,11.50
2017-09-16T07:16:07.764Z,11.50
2017-09-16T07:18:36.278Z,11.60
2017-09-16T07:21:03.908Z,11.60
2017-09-16T07:23:31.537Z,11.60
2017-09-16T07:25:59.158Z,11.70
2017-09-16T07:28:27.536Z,11.80
2017-09-16T07:30:55.961Z,11.80
2017-09-16T07:33:23.581Z,11.80
2017-09-16T07:35:52.030Z,12.10
2017-09-16T07:38:20.430Z,12.20
2017-09-16T07:40:48.030Z,12.20
2017-09-16T07:43:15.729Z,12.30
2017-09-16T07:45:43.324Z,12.40
2017-09-16T07:48:11.749Z,12.70
2017-09-16T07:50:39.391Z,12.70
2017-09-16T07:53:07.039Z,12.90
2017-09-16T07:55:34.700Z,13.00
2017-09-16T07:58:02.324Z,13.10
2017-09-16T08:00:29.961Z,13.20
2017-09-16T08:02:57.652Z,13.30
2017-09-16T08:05:26.196Z,13.40
2017-09-16T08:07:53.855Z,13.50
2017-09-16T08:10:21.472Z,13.60
2017-09-16T08:12:49.870Z,13.70
2017-09-16T08:15:18.076Z,13.70
2017-09-16T08:17:45.707Z,13.80
2017-09-16T08:20:13.368Z,13.90
2017-09-16T08:22:41.759Z,13.80
2017-09-16T08:25:09.427Z,13.70
2017-09-16T08:27:37.081Z,13.80
2017-09-16T08:30:04.711Z,13.80
2017-09-16T08:32:32.397Z,13.80
2017-09-16T08:35:00.754Z,13.70
2017-09-16T08:37:29.130Z,13.80
2017-09-16T08:39:56.818Z,13.80
2017-09-16T08:42:24.413Z,13.80
2017-09-16T08:44:52.039Z,13.90
2017-09-16T08:47:19.700Z,14.10
2017-09-16T08:49:47.381Z,14.20
2017-09-16T08:52:15.026Z,14.20
2017-09-16T08:54:43.378Z,14.50
2017-09-16T08:57:10.979Z,14.50
2017-09-16T08:59:38.699Z,14.60
2017-09-16T09:02:06.327Z,14.60
2017-09-16T09:04:33.981Z,14.20
2017-09-16T09:07:01.625Z,14.40
2017-09-16T09:09:29.284Z,14.30
2017-09-16T09:11:56.887Z,14.50
2017-09-16T09:14:25.314Z,14.80
2017-09-16T09:16:52.973Z,14.80
2017-09-16T09:19:21.369Z,14.80
2017-09-16T09:21:49.016Z,14.80
2017-09-16T09:24:17.377Z,14.90
2017-09-16T09:26:45.028Z,14.80
2017-09-16T09:29:12.656Z,15.10
2017-09-16T09:31:40.337Z,15.00
2017-09-16T09:34:07.982Z,15.10
2017-09-16T09:39:09.443Z,15.30
2017-09-16T09:41:37.137Z,15.00
2017-09-16T09:44:04.745Z,14.90
2017-09-16T09:46:32.388Z,14.80
2017-09-16T09:49:00.774Z,14.90
2017-09-16T09:51:29.282Z,15.00
2017-09-16T09:53:56.915Z,15.10
2017-09-16T09:56:24.551Z,15.30
2017-09-16T09:58:52.177Z,15.40
2017-09-16T10:01:20.167Z,15.50
2017-09-16T10:03:47.757Z,15.60
2017-09-16T10:06:15.386Z,15.60
2017-09-16T10:08:42.983Z,15.60
2017-09-16T10:11:12.323Z,16.00
2017-09-16T10:13:39.907Z,16.00
2017-09-16T10:16:08.289Z,16.00
2017-09-16T10:18:35.926Z,16.00
2017-09-16T10:21:04.385Z,15.90
2017-09-16T10:23:32.015Z,15.90
2017-09-16T10:25:59.653Z,15.70
2017-09-16T10:28:28.121Z,15.60
2017-09-16T10:30:55.760Z,15.60
2017-09-16T10:33:23.376Z,15.40
2017-09-16T10:35:50.987Z,15.60
2017-09-16T10:38:18.766Z,15.80
2017-09-16T10:40:46.399Z,16.10
2017-09-16T10:43:14.020Z,16.30
2017-09-16T10:45:41.645Z,16.30
2017-09-16T10:48:09.281Z,16.40
2017-09-16T10:50:36.927Z,16.50
2017-09-16T10:53:05.289Z,16.70
2017-09-16T10:55:32.940Z,16.70
2017-09-16T10:58:00.558Z,16.80
2017-09-16T11:00:28.268Z,16.90
2017-09-16T11:02:55.859Z,16.90
2017-09-16T11:05:24.263Z,16.60
2017-09-16T11:07:51.865Z,16.60
2017-09-16T11:10:19.482Z,16.60
2017-09-16T11:12:47.100Z,16.80
2017-09-16T11:15:14.744Z,16.90
2017-09-16T11:17:42.337Z,17.00
2017-09-16T11:20:10.773Z,17.00
2017-09-16T11:22:38.429Z,16.90
2017-09-16T11:25:06.022Z,17.00
2017-09-16T11:27:33.650Z,16.80
2017-09-16T11:30:01.265Z,16.90
2017-09-16T11:32:28.946Z,16.90
2017-09-16T11:34:56.522Z,16.70
2017-09-16T11:37:24.143Z,16.50
2017-09-16T11:39:52.658Z,16.50
2017-09-16T11:42:20.313Z,16.60
2017-09-16T11:44:47.952Z,16.50
2017-09-16T11:47:15.561Z,16.50
2017-09-16T11:49:43.959Z,16.40
2017-09-16T11:52:11.590Z,16.40
2017-09-16T11:54:39.210Z,16.30
2017-09-16T11:57:07.634Z,16.30
2017-09-16T11:59:35.267Z,16.30
2017-09-16T12:02:02.894Z,16.40
2017-09-16T12:04:30.547Z,16.50
2017-09-16T12:06:58.179Z,16.50
2017-09-16T12:09:25.804Z,16.60
2017-09-16T12:11:54.135Z,16.50
2017-09-16T12:14:22.120Z,16.50
2017-09-16T12:16:49.742Z,16.50
2017-09-16T12:19:17.326Z,16.60
2017-09-16T12:21:45.501Z,16.60
2017-09-16T12:24:13.089Z,16.50
2017-09-16T12:26:40.703Z,16.20
2017-09-16T12:29:09.114Z,15.70
2017-09-16T12:31:36.785Z,15.70
2017-09-16T12:34:04.450Z,15.50
2017-09-16T12:36:32.200Z,15.40
2017-09-16T12:38:59.884Z,15.40
2017-09-16T12:41:28.197Z,15.40
2017-09-16T12:43:56.565Z,15.40
2017-09-16T12:46:24.209Z,15.40
2017-09-16T12:48:51.848Z,15.60
2017-09-16T12:51:20.393Z,15.70
2017-09-16T12:53:48.816Z,15.80
2017-09-16T12:56:16.395Z,15.80
2017-09-16T12:58:44.013Z,16.00
2017-09-16T13:01:11.708Z,15.90
2017-09-16T13:03:40.119Z,15.80
2017-09-16T13:06:08.543Z,15.90
2017-09-16T13:08:36.140Z,15.90
2017-09-16T13:11:03.770Z,15.90
2017-09-16T13:13:31.466Z,15.80
2017-09-16T13:15:59.053Z,15.80
2017-09-16T13:18:27.385Z,15.80
2017-09-16T13:20:55.689Z,15.80
2017-09-16T13:23:23.305Z,15.80
2017-09-16T13:25:50.964Z,16.00
2017-09-16T13:28:18.644Z,16.00
2017-09-16T13:30:46.342Z,16.00
2017-09-16T13:33:13.934Z,16.30
2017-09-16T13:35:41.516Z,16.50
2017-09-16T13:38:09.168Z,16.50
2017-09-16T13:40:36.749Z,16.60
2017-09-16T13:43:04.361Z,16.70
2017-09-16T13:45:31.946Z,16.90
2017-09-16T13:48:00.273Z,17.10
2017-09-16T13:50:28.833Z,17.30
2017-09-16T13:52:56.507Z,17.30
2017-09-16T13:55:24.137Z,17.30
2017-09-16T13:57:51.976Z,17.10
2017-09-16T14:00:19.597Z,17.10
2017-09-16T14:02:47.176Z,17.10
2017-09-16T14:05:14.848Z,16.90
2017-09-16T14:07:43.211Z,16.70
2017-09-16T14:10:10.842Z,16.60
2017-09-16T14:12:38.519Z,16.60
2017-09-16T14:15:06.406Z,16.70
2017-09-16T14:17:35.017Z,16.90
2017-09-16T14:20:03.432Z,17.20
2017-09-16T14:22:31.294Z,17.10
2017-09-16T14:24:58.949Z,17.10
2017-09-16T14:27:26.655Z,17.30
2017-09-16T14:29:54.273Z,17.20
2017-09-16T14:32:21.865Z,17.20
2017-09-16T14:34:49.512Z,17.10
2017-09-16T14:37:18.227Z,17.20
2017-09-16T14:39:45.860Z,17.10
2017-09-16T14:42:13.454Z,17.00
2017-09-16T14:44:41.063Z,17.10
2017-09-16T14:47:08.721Z,17.10
2017-09-16T14:49:36.436Z,17.10
2017-09-16T14:52:04.069Z,17.20
2017-09-16T14:54:31.683Z,17.30
2017-09-16T14:57:00.955Z,17.20
2017-09-16T14:59:29.434Z,17.20
2017-09-16T15:01:57.055Z,16.90
2017-09-16T15:04:24.653Z,16.90
2017-09-16T15:06:52.263Z,16.90
2017-09-16T15:09:19.886Z,16.80
2017-09-16T15:11:48.257Z,17.00
2017-09-16T15:14:16.630Z,17.00
2017-09-16T15:16:44.213Z,17.00
2017-09-16T15:19:12.621Z,17.00
2017-09-16T15:21:40.245Z,17.00
2017-09-16T15:24:07.868Z,17.00
2017-09-16T15:26:35.496Z,17.10
2017-09-16T15:29:03.149Z,17.10
2017-09-16T15:31:31.604Z,17.30
2017-09-16T15:33:59.217Z,17.30
2017-09-16T15:36:26.896Z,17.30
2017-09-16T15:38:54.540Z,17.30
2017-09-16T15:41:22.148Z,17.20
2017-09-16T15:43:49.783Z,17.30
2017-09-16T15:46:17.424Z,17.20
2017-09-16T15:48:45.074Z,17.20
2017-09-16T15:51:12.701Z,17.30
2017-09-16T15:53:41.731Z,17.30
2017-09-16T15:56:11.855Z,17.30
2017-09-16T15:58:39.509Z,17.40
2017-09-16T16:01:07.110Z,17.40
2017-09-16T16:03:34.802Z,17.50
2017-09-16T16:06:02.412Z,17.60
2017-09-16T16:08:30.100Z,17.80
2017-09-16T16:10:57.726Z,17.70
2017-09-16T16:13:25.315Z,17.70
2017-09-16T16:15:52.970Z,17.80
2017-09-16T16:18:20.591Z,17.90
2017-09-16T16:20:48.231Z,17.80
2017-09-16T16:23:15.896Z,17.90
2017-09-16T16:25:44.281Z,18.00
2017-09-16T16:28:12.662Z,17.90
2017-09-16T16:30:40.259Z,17.90
2017-09-16T16:33:08.014Z,17.70
2017-09-16T16:35:35.617Z,17.70
2017-09-16T16:38:03.321Z,17.70
2017-09-16T16:40:30.967Z,17.70
2017-09-16T16:42:59.362Z,17.60
2017-09-16T16:45:26.990Z,17.60
2017-09-16T16:47:54.571Z,17.50
2017-09-16T16:50:22.916Z,17.20
2017-09-16T16:52:50.563Z,17.10
2017-09-16T16:55:18.154Z,17.10
2017-09-16T16:57:46.575Z,16.80
2017-09-16T17:00:14.215Z,16.80
2017-09-16T17:02:42.618Z,16.70
2017-09-16T17:05:10.238Z,16.70
2017-09-16T17:07:37.912Z,16.60
2017-09-16T17:10:06.329Z,16.40
2017-09-16T17:12:35.497Z,16.40
2017-09-16T17:15:04.133Z,16.30
2017-09-16T17:17:31.777Z,16.20
2017-09-16T17:19:59.437Z,16.20
2017-09-16T17:22:27.057Z,16.00
2017-09-16T17:24:55.467Z,15.80
2017-09-16T17:27:24.360Z,15.80
2017-09-16T17:29:51.937Z,15.70
2017-09-16T17:32:19.721Z,15.50
2017-09-16T17:34:47.931Z,15.40
2017-09-16T17:37:15.639Z,15.40
2017-09-16T17:39:43.386Z,15.30
2017-09-16T17:42:11.032Z,15.20
2017-09-16T17:44:39.403Z,15.10
2017-09-16T17:47:07.075Z,15.10
2017-09-16T17:49:34.708Z,15.10
2017-09-16T17:52:02.734Z,15.00
2017-09-16T17:54:30.328Z,14.90
2017-09-16T17:56:57.964Z,14.90
2017-09-16T17:59:25.609Z,14.80
2017-09-16T18:01:53.251Z,14.80
2017-09-16T18:04:21.528Z,14.70
2017-09-16T18:06:49.127Z,14.60
2017-09-16T18:09:16.757Z,14.70
2017-09-16T18:11:44.437Z,14.70
2017-09-16T18:14:12.100Z,14.70
2017-09-16T18:16:39.701Z,14.70
2017-09-16T18:19:07.332Z,14.70
2017-09-16T18:21:34.924Z,14.80
2017-09-16T18:24:02.725Z,14.80
2017-09-16T18:26:30.341Z,14.80
2017-09-16T18:28:57.997Z,14.70
2017-09-16T18:31:25.636Z,14.70
2017-09-16T18:33:53.253Z,14.70
2017-09-16T18:36:21.630Z,14.70
2017-09-16T18:38:49.281Z,14.70
2017-09-16T18:41:16.920Z,14.80
2017-09-16T18:43:44.698Z,14.70
2017-09-16T18:46:12.329Z,14.60
2017-09-16T18:48:40.004Z,14.50
2017-09-16T18:51:08.367Z,14.40
2017-09-16T18:53:36.107Z,14.40
2017-09-16T18:56:03.729Z,14.30
2017-09-16T18:58:31.369Z,14.30
2017-09-16T19:00:59.007Z,14.20
2017-09-16T19:03:26.613Z,14.20
2017-09-16T19:05:54.221Z,14.20
2017-09-16T19:08:21.941Z,14.20
2017-09-16T19:10:50.336Z,14.00
2017-09-16T19:13:18.695Z,13.90
2017-09-16T19:15:46.324Z,13.90
2017-09-16T19:18:13.918Z,13.80
2017-09-16T19:20:42.297Z,13.60
2017-09-16T19:23:10.743Z,13.60
2017-09-16T19:25:38.362Z,13.50
2017-09-16T19:28:06.741Z,13.50
2017-09-16T19:30:34.366Z,13.50
2017-09-16T19:33:01.965Z,13.50
2017-09-16T19:35:29.617Z,13.50
2017-09-16T19:37:57.977Z,13.60
2017-09-16T19:40:26.404Z,13.50
2017-09-16T19:42:54.056Z,13.50
2017-09-16T19:45:22.144Z,13.50
2017-09-16T19:47:49.996Z,13.50
2017-09-16T19:50:18.027Z,13.50
2017-09-16T19:52:46.771Z,13.50
2017-09-16T19:55:14.639Z,13.50
2017-09-16T19:57:42.323Z,13.50
2017-09-16T20:00:09.984Z,13.40
2017-09-16T20:02:37.803Z,13.40
2017-09-16T20:05:05.584Z,13.30
2017-09-16T20:07:33.309Z,13.20
2017-09-16T20:10:00.990Z,13.20
2017-09-16T20:12:28.803Z,13.20
2017-09-16T20:14:56.508Z,13.30
2017-09-16T20:17:24.381Z,13.30
2017-09-16T20:19:52.267Z,13.40
2017-09-16T20:22:20.028Z,13.40
2017-09-16T20:24:47.680Z,13.50
2017-09-16T20:27:16.275Z,13.40
2017-09-16T20:29:43.949Z,13.40
2017-09-16T20:32:11.561Z,13.40
2017-09-16T20:34:39.258Z,13.30
2017-09-16T20:37:06.914Z,13.30
2017-09-16T20:39:34.557Z,13.30
2017-09-16T20:42:03.023Z,13.30
2017-09-16T20:44:30.664Z,13.20
2017-09-16T20:46:58.292Z,13.10
2017-09-16T20:49:25.880Z,13.10
2017-09-16T20:51:54.308Z,13.00
2017-09-16T20:54:21.946Z,13.00
2017-09-16T20:56:49.551Z,12.90
2017-09-16T20:59:17.946Z,12.90
2017-09-16T21:01:46.351Z,12.90
2017-09-16T21:04:13.961Z,12.90
2017-09-16T21:06:41.601Z,12.90
2017-09-16T21:09:09.208Z,12.80
2017-09-16T21:11:36.820Z,12.90
2017-09-16T21:14:05.028Z,12.80
2017-09-16T21:16:32.653Z,12.90
2017-09-16T21:19:00.323Z,12.80
2017-09-16T21:21:27.910Z,12.80
2017-09-16T21:23:55.524Z,12.80
2017-09-16T21:26:23.181Z,12.70
2017-09-16T21:28:50.787Z,12.70
2017-09-16T21:31:18.418Z,12.60
2017-09-16T21:33:46.063Z,12.70
2017-09-16T21:36:13.902Z,12.70
2017-09-16T21:38:42.434Z,12.60
2017-09-16T21:41:10.239Z,12.60
2017-09-16T21:43:37.883Z,12.50
2017-09-16T21:46:05.653Z,12.60
2017-09-16T21:48:33.275Z,12.40
2017-09-16T21:51:00.999Z,12.30
2017-09-16T21:53:29.447Z,12.10
2017-09-16T21:55:57.091Z,12.10
2017-09-16T21:58:24.943Z,12.10
2017-09-16T22:00:52.524Z,12.10
2017-09-16T22:03:20.303Z,12.10
2017-09-16T22:05:48.565Z,12.10
2017-09-16T22:08:16.745Z,12.00
2017-09-16T22:10:44.967Z,12.10
2017-09-16T22:13:13.792Z,11.90
2017-09-16T22:15:41.518Z,11.90
2017-09-16T22:18:09.981Z,11.80
2017-09-16T22:20:37.659Z,11.80
2017-09-16T22:23:06.298Z,11.70
2017-09-16T22:25:34.075Z,11.70
2017-09-16T22:28:01.668Z,11.60
2017-09-16T22:30:30.029Z,11.60
2017-09-16T22:32:57.794Z,11.60
2017-09-16T22:35:25.578Z,11.60
2017-09-16T22:37:53.985Z,11.70
2017-09-16T22:40:21.606Z,11.60
2017-09-16T22:42:49.782Z,11.70
2017-09-16T22:45:17.401Z,11.80
2017-09-16T22:47:44.984Z,11.80
2017-09-16T22:50:12.585Z,11.80
2017-09-16T22:52:40.980Z,11.70
2017-09-16T22:55:08.579Z,11.70
2017-09-16T22:57:36.756Z,11.70
2017-09-16T23:00:04.419Z,11.60
2017-09-16T23:02:32.046Z,11.40
2017-09-16T23:04:59.633Z,11.40
2017-09-16T23:07:27.303Z,11.30
2017-09-16T23:09:54.933Z,11.20
2017-09-16T23:12:22.508Z,11.20
2017-09-16T23:14:50.150Z,11.20
2017-09-16T23:17:17.768Z,11.20
2017-09-16T23:19:45.409Z,11.10
2017-09-16T23:22:13.350Z,11.00
2017-09-16T23:24:40.946Z,11.00
2017-09-16T23:27:08.587Z,10.90
2017-09-16T23:29:36.165Z,10.90
2017-09-16T23:32:04.535Z,10.90
2017-09-16T23:34:32.176Z,10.90
2017-09-16T23:36:59.795Z,10.80
2017-09-16T23:39:28.220Z,10.80
2017-09-16T23:41:55.921Z,10.80
2017-09-16T23:44:24.342Z,10.90
2017-09-16T23:46:51.966Z,10.90
2017-09-16T23:49:20.357Z,10.80
2017-09-16T23:51:47.971Z,10.70
2017-09-16T23:54:15.645Z,10.70
2017-09-16T23:56:43.227Z,10.70
2017-09-16T23:59:10.891Z,10.60
